GCI weather

Guernsey Airport
Saint Peter Port, Guernsey

Public forecast

Using degrees Celsius for public forecast. Weather courtesy of forecast.io.

Current aviation weather report (METAR) for Guernsey Airport

Retrieved 2019/12/05 16:20 UTC (31 minutes ago):

EGJB 051620Z 23015KT 9999 SCT017 10/07 Q1020

Closest aviation forecast (TAF) to Guernsey Airport

Forecast is more than 12 hours old.

Closest forecast is Lannion-Côte de Granit Airport, 53.3 nm (98.7 km) SW. Retrieved 2019/05/15 19:06 UTC (7 months ago):

TAF LFRO 151936Z 1519/1612 CNL